RYR42MY LICC-EDDB
Flight info
| Callsign | RYR42MY |
|---|---|
| Flight time | N/A |
| Altitude | 36000 |
| Route | BUDIN DCT AGNIS DCT EKMIL DCT KEGED DCT IBENI/N0437F370 DCT GIRDA/N0442F380 DCT NEMAL/N0446F370 DCT PINQI/N0444F380 DCT GAVLI T203 ATGUP |
| Aircraft | B738/M-SDE3FGILRWY/SB1 |
Departure
| Time | 2026-04-29 15:11 |
|---|---|
| Airport | Catania-Fontanarossa Airport (LICC) |
Arrival
| Time | N/A |
|---|---|
| Airport | Berlin Brandenburg Airport (EDDB) |
| Time | Latitude | Longitude | Altitude | Speed | Heading |
|---|---|---|---|---|---|
| 2026-04-29 15:01 | 37.46883 | 15.06141 | 31 ft | 0 kts | 354° |
| 2026-04-29 15:05 | 37.46860 | 15.06144 | 43 ft | 4 kts | 354° |
| 2026-04-29 15:06 | 37.46834 | 15.06148 | 29 ft | 2 kts | 354° |
| 2026-04-29 15:06 | 37.46813 | 15.06153 | 30 ft | 4 kts | 320° |
| 2026-04-29 15:06 | 37.46805 | 15.06177 | 30 ft | 3 kts | 264° |
| 2026-04-29 15:06 | 37.46808 | 15.06204 | 28 ft | 1 kts | 264° |
| 2026-04-29 15:08 | 37.46805 | 15.06172 | 31 ft | 11 kts | 264° |
| 2026-04-29 15:08 | 37.46792 | 15.06021 | 29 ft | 20 kts | 264° |
| 2026-04-29 15:09 | 37.46777 | 15.05852 | 30 ft | 19 kts | 263° |
| 2026-04-29 15:09 | 37.46763 | 15.05685 | 31 ft | 19 kts | 264° |
| 2026-04-29 15:09 | 37.46750 | 15.05524 | 31 ft | 18 kts | 264° |
| 2026-04-29 15:09 | 37.46738 | 15.05369 | 31 ft | 18 kts | 264° |
| 2026-04-29 15:10 | 37.46664 | 15.05252 | 32 ft | 17 kts | 220° |
| 2026-04-29 15:10 | 37.46590 | 15.05188 | 34 ft | 10 kts | 189° |
| 2026-04-29 15:10 | 37.46561 | 15.05237 | 34 ft | 5 kts | 82° |
| 2026-04-29 15:10 | 37.46568 | 15.05306 | 34 ft | 23 kts | 83° |
| 2026-04-29 15:11 | 37.46612 | 15.05834 | 34 ft | 97 kts | 84° |
| 2026-04-29 15:11 | 37.46711 | 15.06949 | 52 ft | 155 kts | 81° |
| 2026-04-29 15:11 | 37.46819 | 15.08354 | 653 ft | 165 kts | 82° |
| 2026-04-29 15:11 | 37.47044 | 15.09801 | 1447 ft | 170 kts | 79° |
| 2026-04-29 15:12 | 37.47282 | 15.11291 | 2168 ft | 177 kts | 83° |
| 2026-04-29 15:12 | 37.47435 | 15.12356 | 2513 ft | 191 kts | 82° |
| 2026-04-29 15:12 | 37.47889 | 15.14579 | 3248 ft | 211 kts | 61° |
| 2026-04-29 15:12 | 37.48982 | 15.15927 | 3483 ft | 232 kts | 26° |
| 2026-04-29 15:13 | 37.50529 | 15.16585 | 3992 ft | 239 kts | 15° |
| 2026-04-29 15:13 | 37.52186 | 15.17132 | 4366 ft | 259 kts | 14° |
| 2026-04-29 15:13 | 37.53999 | 15.17716 | 4866 ft | 273 kts | 14° |
| 2026-04-29 15:13 | 37.55847 | 15.18282 | 5729 ft | 273 kts | 9° |
| 2026-04-29 15:14 | 37.57743 | 15.18566 | 6560 ft | 276 kts | 5° |
| 2026-04-29 15:14 | 37.59666 | 15.18559 | 7306 ft | 279 kts | 354° |
| 2026-04-29 15:14 | 37.61605 | 15.18296 | 8084 ft | 281 kts | 352° |
| 2026-04-29 15:14 | 37.63555 | 15.17985 | 8851 ft | 285 kts | 351° |
| 2026-04-29 15:15 | 37.65535 | 15.17678 | 9626 ft | 288 kts | 352° |
| 2026-04-29 15:15 | 37.67535 | 15.17389 | 10353 ft | 291 kts | 352° |
| 2026-04-29 15:15 | 37.69561 | 15.17116 | 11062 ft | 294 kts | 352° |
| 2026-04-29 15:15 | 37.71605 | 15.16854 | 11792 ft | 296 kts | 352° |
| 2026-04-29 15:16 | 37.73674 | 15.16598 | 12478 ft | 300 kts | 352° |
| 2026-04-29 15:16 | 37.75759 | 15.16346 | 13194 ft | 303 kts | 352° |
| 2026-04-29 15:16 | 37.77872 | 15.16095 | 13886 ft | 307 kts | 351° |
| 2026-04-29 15:16 | 37.80022 | 15.15842 | 14404 ft | 316 kts | 351° |
| 2026-04-29 15:17 | 37.82293 | 15.15574 | 14554 ft | 338 kts | 352° |
| 2026-04-29 15:17 | 37.84705 | 15.15291 | 14704 ft | 358 kts | 352° |
| 2026-04-29 15:17 | 37.87256 | 15.14994 | 14837 ft | 378 kts | 352° |
| 2026-04-29 15:17 | 37.89932 | 15.14686 | 14966 ft | 395 kts | 352° |
| 2026-04-29 15:18 | 37.92720 | 15.14367 | 15186 ft | 408 kts | 352° |
| 2026-04-29 15:18 | 37.95566 | 15.14041 | 15629 ft | 413 kts | 352° |
| 2026-04-29 15:18 | 37.98437 | 15.13714 | 16177 ft | 415 kts | 352° |
| 2026-04-29 15:18 | 38.01322 | 15.13384 | 16746 ft | 417 kts | 353° |
| 2026-04-29 15:19 | 38.04221 | 15.13052 | 17296 ft | 420 kts | 353° |
| 2026-04-29 15:19 | 38.07146 | 15.12715 | 17800 ft | 424 kts | 353° |
| 2026-04-29 15:19 | 38.10093 | 15.12374 | 18289 ft | 427 kts | 353° |
| 2026-04-29 15:19 | 38.13054 | 15.12031 | 18730 ft | 429 kts | 353° |
| 2026-04-29 15:20 | 38.16037 | 15.11686 | 19170 ft | 432 kts | 353° |
| 2026-04-29 15:20 | 38.19036 | 15.11338 | 19614 ft | 434 kts | 352° |
| 2026-04-29 15:20 | 38.22053 | 15.10987 | 20048 ft | 436 kts | 352° |
| 2026-04-29 15:20 | 38.25085 | 15.10634 | 20472 ft | 439 kts | 352° |
| 2026-04-29 15:21 | 38.28134 | 15.10279 | 20887 ft | 441 kts | 352° |
| 2026-04-29 15:21 | 38.31193 | 15.09923 | 21288 ft | 443 kts | 352° |
| 2026-04-29 15:21 | 38.34273 | 15.09563 | 21679 ft | 446 kts | 352° |
| 2026-04-29 15:21 | 38.37368 | 15.09201 | 22051 ft | 448 kts | 352° |
| 2026-04-29 15:22 | 38.40444 | 15.08841 | 22408 ft | 451 kts | 352° |
| 2026-04-29 15:22 | 38.43610 | 15.08471 | 22775 ft | 453 kts | 352° |
| 2026-04-29 15:22 | 38.46718 | 15.08108 | 23128 ft | 455 kts | 352° |
| 2026-04-29 15:22 | 38.49860 | 15.07601 | 23458 ft | 456 kts | 348° |
| 2026-04-29 15:23 | 38.52989 | 15.06893 | 23758 ft | 458 kts | 346° |
| 2026-04-29 15:23 | 38.56119 | 15.06104 | 24073 ft | 458 kts | 346° |
| 2026-04-29 15:23 | 38.59290 | 15.05282 | 24388 ft | 460 kts | 345° |
| 2026-04-29 15:23 | 38.62435 | 15.04470 | 24673 ft | 461 kts | 346° |
| 2026-04-29 15:24 | 38.65585 | 15.03671 | 24962 ft | 463 kts | 346° |
| 2026-04-29 15:24 | 38.68754 | 15.02880 | 25245 ft | 465 kts | 346° |
| 2026-04-29 15:24 | 38.71888 | 15.02108 | 25530 ft | 466 kts | 346° |
| 2026-04-29 15:24 | 38.75078 | 15.01326 | 25787 ft | 468 kts | 346° |
| 2026-04-29 15:25 | 38.78280 | 15.00545 | 26036 ft | 470 kts | 346° |
| 2026-04-29 15:25 | 38.81489 | 14.99762 | 26344 ft | 470 kts | 346° |
| 2026-04-29 15:25 | 38.84694 | 14.98977 | 26750 ft | 468 kts | 346° |
| 2026-04-29 15:25 | 38.87883 | 14.98192 | 27175 ft | 465 kts | 346° |
| 2026-04-29 15:26 | 38.91057 | 14.97410 | 27574 ft | 464 kts | 346° |
| 2026-04-29 15:26 | 38.94228 | 14.96630 | 27941 ft | 463 kts | 346° |
| 2026-04-29 15:26 | 38.97394 | 14.95851 | 28319 ft | 463 kts | 346° |
| 2026-04-29 15:26 | 39.00549 | 14.95075 | 28709 ft | 461 kts | 346° |
| 2026-04-29 15:27 | 39.03699 | 14.94300 | 29095 ft | 460 kts | 346° |
| 2026-04-29 15:27 | 39.06841 | 14.93527 | 29480 ft | 459 kts | 346° |
| 2026-04-29 15:27 | 39.09977 | 14.92754 | 29872 ft | 458 kts | 346° |
| 2026-04-29 15:27 | 39.13110 | 14.91980 | 30223 ft | 458 kts | 346° |
| 2026-04-29 15:28 | 39.16237 | 14.91208 | 30513 ft | 457 kts | 346° |
| 2026-04-29 15:28 | 39.18303 | 14.90697 | 30710 ft | 457 kts | 346° |
| 2026-04-29 15:28 | 39.22471 | 14.89666 | 31130 ft | 455 kts | 346° |
| 2026-04-29 15:28 | 39.25580 | 14.88896 | 31450 ft | 454 kts | 346° |
| 2026-04-29 15:29 | 39.28684 | 14.88126 | 31730 ft | 454 kts | 345° |
| 2026-04-29 15:29 | 39.34887 | 14.86586 | 32300 ft | 453 kts | 345° |
| 2026-04-29 15:30 | 39.41068 | 14.85049 | 32873 ft | 452 kts | 345° |
| 2026-04-29 15:30 | 39.44154 | 14.84281 | 33140 ft | 451 kts | 345° |
| 2026-04-29 15:30 | 39.47236 | 14.83513 | 33429 ft | 451 kts | 345° |
| 2026-04-29 15:30 | 39.50309 | 14.82746 | 33703 ft | 450 kts | 345° |
| 2026-04-29 15:31 | 39.53386 | 14.81978 | 33952 ft | 450 kts | 345° |
| 2026-04-29 15:31 | 39.56462 | 14.81209 | 34155 ft | 450 kts | 345° |
| 2026-04-29 15:31 | 39.59532 | 14.80441 | 34388 ft | 449 kts | 345° |
| 2026-04-29 15:31 | 39.62602 | 14.79672 | 34590 ft | 449 kts | 345° |
| 2026-04-29 15:32 | 39.65669 | 14.78903 | 34796 ft | 449 kts | 345° |
| 2026-04-29 15:32 | 39.68697 | 14.78144 | 35000 ft | 449 kts | 345° |
| 2026-04-29 15:32 | 39.71760 | 14.77375 | 35210 ft | 448 kts | 345° |
| 2026-04-29 15:32 | 39.74859 | 14.76596 | 35434 ft | 447 kts | 345° |
| 2026-04-29 15:33 | 39.77868 | 14.75839 | 35618 ft | 447 kts | 345° |
| 2026-04-29 15:33 | 39.80925 | 14.75069 | 35794 ft | 447 kts | 345° |
| 2026-04-29 15:33 | 39.83977 | 14.74300 | 35975 ft | 447 kts | 345° |
| 2026-04-29 15:34 | 39.90113 | 14.72749 | 36031 ft | 452 kts | 345° |
| 2026-04-29 15:34 | 39.96313 | 14.71179 | 36037 ft | 456 kts | 345° |
| 2026-04-29 15:35 | 40.02560 | 14.69595 | 36033 ft | 458 kts | 345° |
| 2026-04-29 15:35 | 40.08827 | 14.68004 | 36029 ft | 460 kts | 345° |
| 2026-04-29 15:36 | 40.15105 | 14.66407 | 36027 ft | 460 kts | 345° |
| 2026-04-29 15:36 | 40.21388 | 14.64806 | 36031 ft | 460 kts | 345° |
| 2026-04-29 15:37 | 40.27659 | 14.63204 | 36029 ft | 459 kts | 345° |
| 2026-04-29 15:37 | 40.32862 | 14.61873 | 36031 ft | 458 kts | 345° |
| 2026-04-29 15:38 | 40.40171 | 14.59999 | 36035 ft | 457 kts | 345° |
| 2026-04-29 15:38 | 40.45357 | 14.58667 | 36038 ft | 457 kts | 345° |
| 2026-04-29 15:39 | 40.51589 | 14.57063 | 36040 ft | 456 kts | 345° |
| 2026-04-29 15:39 | 40.57819 | 14.55457 | 36040 ft | 456 kts | 345° |
| 2026-04-29 15:40 | 40.63157 | 14.54078 | 36042 ft | 455 kts | 345° |
| 2026-04-29 15:40 | 40.69375 | 14.52470 | 36036 ft | 455 kts | 345° |
| 2026-04-29 15:41 | 40.75594 | 14.50857 | 36017 ft | 455 kts | 345° |
| 2026-04-29 15:41 | 40.81808 | 14.49244 | 36036 ft | 455 kts | 345° |
| 2026-04-29 15:42 | 40.88021 | 14.47627 | 36023 ft | 455 kts | 345° |
| 2026-04-29 15:42 | 40.94177 | 14.46022 | 36030 ft | 455 kts | 345° |
| 2026-04-29 15:43 | 41.00386 | 14.44401 | 36025 ft | 455 kts | 345° |
| 2026-04-29 15:43 | 41.06600 | 14.42774 | 36022 ft | 455 kts | 345° |
| 2026-04-29 15:44 | 41.12810 | 14.41146 | 36033 ft | 455 kts | 345° |
| 2026-04-29 15:44 | 41.19018 | 14.39515 | 36035 ft | 455 kts | 345° |
| 2026-04-29 15:45 | 41.25227 | 14.37881 | 36033 ft | 455 kts | 345° |
| 2026-04-29 15:45 | 41.31435 | 14.36244 | 36042 ft | 455 kts | 345° |
| 2026-04-29 15:46 | 41.37602 | 14.34614 | 36030 ft | 454 kts | 345° |
| 2026-04-29 15:46 | 41.43799 | 14.32974 | 36036 ft | 454 kts | 345° |
| 2026-04-29 15:47 | 41.49986 | 14.31333 | 36027 ft | 454 kts | 345° |
| 2026-04-29 15:47 | 41.56185 | 14.29684 | 36033 ft | 454 kts | 345° |
| 2026-04-29 15:48 | 41.62368 | 14.28038 | 36026 ft | 454 kts | 345° |
| 2026-04-29 15:48 | 41.68564 | 14.26385 | 36026 ft | 453 kts | 345° |
| 2026-04-29 15:49 | 41.74750 | 14.24731 | 36027 ft | 453 kts | 345° |
| 2026-04-29 15:49 | 41.80934 | 14.23075 | 36030 ft | 453 kts | 345° |
| 2026-04-29 15:50 | 41.87115 | 14.21415 | 36022 ft | 453 kts | 345° |
| 2026-04-29 15:50 | 41.93290 | 14.19755 | 36023 ft | 452 kts | 345° |
| 2026-04-29 15:51 | 41.99454 | 14.18094 | 36029 ft | 451 kts | 345° |
| 2026-04-29 15:51 | 42.05602 | 14.16434 | 36018 ft | 448 kts | 345° |
| 2026-04-29 15:52 | 42.11719 | 14.14778 | 36019 ft | 448 kts | 345° |
| 2026-04-29 15:52 | 42.17823 | 14.13132 | 36034 ft | 448 kts | 346° |
| 2026-04-29 15:53 | 42.24004 | 14.11790 | 36034 ft | 451 kts | 348° |
| 2026-04-29 15:53 | 42.30231 | 14.10585 | 36027 ft | 453 kts | 348° |
| 2026-04-29 15:54 | 42.36467 | 14.09347 | 36024 ft | 453 kts | 347° |
| 2026-04-29 15:54 | 42.42702 | 14.08073 | 36026 ft | 453 kts | 347° |
| 2026-04-29 15:55 | 42.48937 | 14.06782 | 36022 ft | 453 kts | 347° |
| 2026-04-29 15:55 | 42.55176 | 14.05487 | 36027 ft | 453 kts | 347° |
| 2026-04-29 15:56 | 42.61410 | 14.04191 | 36025 ft | 453 kts | 347° |
| 2026-04-29 15:56 | 42.67646 | 14.02892 | 36019 ft | 453 kts | 347° |
| 2026-04-29 15:57 | 42.73870 | 14.01594 | 36020 ft | 453 kts | 347° |
| 2026-04-29 15:57 | 42.80092 | 14.00294 | 36019 ft | 452 kts | 347° |
| 2026-04-29 15:58 | 42.86305 | 13.98992 | 36013 ft | 452 kts | 347° |
| 2026-04-29 15:58 | 42.92526 | 13.97686 | 36026 ft | 451 kts | 347° |
| 2026-04-29 15:59 | 42.98731 | 13.96381 | 36022 ft | 451 kts | 347° |
| 2026-04-29 15:59 | 43.04893 | 13.95083 | 36017 ft | 451 kts | 347° |
| 2026-04-29 16:00 | 43.11092 | 13.93774 | 36023 ft | 451 kts | 347° |
| 2026-04-29 16:00 | 43.17290 | 13.92462 | 36022 ft | 451 kts | 347° |
| 2026-04-29 16:01 | 43.23491 | 13.91147 | 36023 ft | 450 kts | 347° |
| 2026-04-29 16:01 | 43.29683 | 13.89831 | 36023 ft | 450 kts | 347° |
| 2026-04-29 16:02 | 43.35886 | 13.88651 | 36016 ft | 453 kts | 353° |
| 2026-04-29 16:02 | 43.42208 | 13.88643 | 36022 ft | 453 kts | 352° |
| 2026-04-29 16:03 | 43.48482 | 13.88014 | 36025 ft | 452 kts | 351° |
| 2026-04-29 16:03 | 43.54751 | 13.87340 | 36027 ft | 452 kts | 351° |
| 2026-04-29 16:04 | 43.61032 | 13.86767 | 36030 ft | 453 kts | 352° |
| 2026-04-29 16:04 | 43.67321 | 13.86254 | 36029 ft | 453 kts | 352° |
| 2026-04-29 16:05 | 43.73608 | 13.85757 | 36030 ft | 452 kts | 352° |
| 2026-04-29 16:05 | 43.79894 | 13.85259 | 36030 ft | 452 kts | 352° |
| 2026-04-29 16:06 | 43.86181 | 13.84757 | 36031 ft | 452 kts | 352° |
| 2026-04-29 16:06 | 43.92457 | 13.84254 | 36033 ft | 452 kts | 352° |
| 2026-04-29 16:07 | 43.98727 | 13.83749 | 36035 ft | 451 kts | 352° |
| 2026-04-29 16:07 | 44.04992 | 13.83245 | 36035 ft | 451 kts | 352° |
| 2026-04-29 16:08 | 44.11256 | 13.82739 | 36036 ft | 450 kts | 352° |
| 2026-04-29 16:08 | 44.13804 | 13.82533 | 36035 ft | 450 kts | 352° |
| 2026-04-29 16:09 | 44.20048 | 13.82027 | 36037 ft | 449 kts | 352° |
| 2026-04-29 16:09 | 44.26291 | 13.81520 | 36042 ft | 449 kts | 352° |
| 2026-04-29 16:10 | 44.32523 | 13.81013 | 36046 ft | 448 kts | 352° |
| 2026-04-29 16:10 | 44.38701 | 13.80510 | 36048 ft | 447 kts | 352° |
| 2026-04-29 16:11 | 44.44913 | 13.80002 | 36049 ft | 447 kts | 352° |
| 2026-04-29 16:11 | 44.51117 | 13.79494 | 36056 ft | 446 kts | 352° |
| 2026-04-29 16:12 | 44.57318 | 13.78985 | 36058 ft | 446 kts | 352° |
| 2026-04-29 16:12 | 44.63517 | 13.78476 | 36059 ft | 446 kts | 352° |
| 2026-04-29 16:13 | 44.69706 | 13.77966 | 36058 ft | 445 kts | 352° |
| 2026-04-29 16:13 | 44.75889 | 13.77455 | 36055 ft | 445 kts | 352° |
| 2026-04-29 16:14 | 44.82063 | 13.76945 | 36053 ft | 445 kts | 352° |
| 2026-04-29 16:14 | 44.88244 | 13.76432 | 36054 ft | 444 kts | 352° |
| 2026-04-29 16:15 | 44.94412 | 13.75919 | 36055 ft | 444 kts | 352° |
| 2026-04-29 16:15 | 45.00587 | 13.75405 | 36060 ft | 444 kts | 352° |
| 2026-04-29 16:16 | 45.06752 | 13.74890 | 36067 ft | 444 kts | 352° |
| 2026-04-29 16:16 | 45.12921 | 13.74374 | 36072 ft | 444 kts | 352° |
| 2026-04-29 16:17 | 45.19088 | 13.73858 | 36089 ft | 444 kts | 352° |
| 2026-04-29 16:17 | 45.25252 | 13.73340 | 36084 ft | 444 kts | 352° |
| 2026-04-29 16:18 | 45.31408 | 13.72822 | 36090 ft | 443 kts | 352° |
| 2026-04-29 16:18 | 45.37526 | 13.72305 | 36083 ft | 443 kts | 352° |
| 2026-04-29 16:19 | 45.43673 | 13.71786 | 36083 ft | 442 kts | 352° |
| 2026-04-29 16:19 | 45.49822 | 13.71265 | 36081 ft | 442 kts | 352° |
| 2026-04-29 16:20 | 45.55961 | 13.70743 | 36087 ft | 442 kts | 352° |
| 2026-04-29 16:20 | 45.62096 | 13.70221 | 36088 ft | 442 kts | 352° |
| 2026-04-29 16:21 | 45.68252 | 13.69695 | 36242 ft | 444 kts | 352° |
| 2026-04-29 16:21 | 45.71329 | 13.69433 | 36469 ft | 442 kts | 352° |
| 2026-04-29 16:21 | 45.74400 | 13.69171 | 36651 ft | 442 kts | 352° |
| 2026-04-29 16:21 | 45.77470 | 13.68908 | 36781 ft | 442 kts | 352° |
| 2026-04-29 16:22 | 45.80535 | 13.68645 | 36912 ft | 442 kts | 352° |
| 2026-04-29 16:22 | 45.83603 | 13.68382 | 37061 ft | 442 kts | 352° |
| 2026-04-29 16:22 | 45.86676 | 13.68118 | 37218 ft | 441 kts | 352° |
| 2026-04-29 16:22 | 45.89741 | 13.67854 | 37364 ft | 441 kts | 352° |
| 2026-04-29 16:23 | 45.92806 | 13.67590 | 37492 ft | 442 kts | 352° |
| 2026-04-29 16:23 | 45.95870 | 13.67326 | 37668 ft | 441 kts | 352° |
| 2026-04-29 16:23 | 45.98933 | 13.67062 | 37863 ft | 439 kts | 352° |
| 2026-04-29 16:23 | 46.01975 | 13.66800 | 38053 ft | 438 kts | 352° |
| 2026-04-29 16:24 | 46.03987 | 13.66627 | 38126 ft | 437 kts | 352° |
| 2026-04-29 16:24 | 46.10126 | 13.66209 | 37840 ft | 447 kts | 354° |
| 2026-04-29 16:24 | 46.13256 | 13.66162 | 37711 ft | 451 kts | 356° |
| 2026-04-29 16:25 | 46.16395 | 13.66296 | 37776 ft | 451 kts | 359° |
| 2026-04-29 16:25 | 46.19514 | 13.66660 | 37952 ft | 449 kts | 2° |
| 2026-04-29 16:25 | 46.22609 | 13.67283 | 38105 ft | 449 kts | 5° |
| 2026-04-29 16:26 | 46.28741 | 13.69358 | 38009 ft | 457 kts | 12° |
| 2026-04-29 16:26 | 46.34793 | 13.72427 | 37936 ft | 464 kts | 18° |
| 2026-04-29 16:27 | 46.40600 | 13.76543 | 38176 ft | 466 kts | 25° |
| 2026-04-29 16:27 | 46.46021 | 13.81742 | 38257 ft | 470 kts | 33° |
| 2026-04-29 16:28 | 46.51002 | 13.88019 | 38101 ft | 478 kts | 40° |
| 2026-04-29 16:28 | 46.55428 | 13.95269 | 38157 ft | 482 kts | 48° |
| 2026-04-29 16:29 | 46.59165 | 14.03392 | 38223 ft | 486 kts | 56° |
| 2026-04-29 16:29 | 46.62110 | 14.12301 | 38162 ft | 493 kts | 65° |
| 2026-04-29 16:30 | 46.64137 | 14.21803 | 38112 ft | 498 kts | 74° |
| 2026-04-29 16:30 | 46.65155 | 14.31847 | 38176 ft | 500 kts | 84° |
| 2026-04-29 16:31 | 46.65093 | 14.41601 | 38118 ft | 505 kts | 93° |
| 2026-04-29 16:31 | 46.63967 | 14.51720 | 38145 ft | 508 kts | 102° |
| 2026-04-29 16:32 | 46.61793 | 14.61483 | 38256 ft | 505 kts | 111° |
| 2026-04-29 16:32 | 46.60370 | 14.66097 | 37990 ft | 496 kts | 116° |
| 2026-04-29 16:32 | 46.58740 | 14.70553 | 37202 ft | 502 kts | 120° |
| 2026-04-29 16:32 | 46.56889 | 14.74889 | 36323 ft | 511 kts | 124° |
| 2026-04-29 16:33 | 46.52561 | 14.83059 | 35579 ft | 502 kts | 133° |
| 2026-04-29 16:33 | 46.50193 | 14.86695 | 35646 ft | 489 kts | 137° |
| 2026-04-29 16:33 | 46.47727 | 14.90011 | 35617 ft | 479 kts | 141° |
| 2026-04-29 16:34 | 46.45152 | 14.93052 | 35287 ft | 477 kts | 145° |
| 2026-04-29 16:34 | 46.42458 | 14.95835 | 34685 ft | 478 kts | 149° |
| 2026-04-29 16:34 | 46.41549 | 14.96693 | 34450 ft | 479 kts | 150° |
| 2026-04-29 16:34 | 46.40955 | 14.97233 | 34292 ft | 479 kts | 151° |
| 2026-04-29 16:35 | 46.38058 | 14.99654 | 33513 ft | 481 kts | 155° |
| 2026-04-29 16:35 | 46.35089 | 15.01835 | 33046 ft | 475 kts | 158° |